sensor_id;sensor_type;location;lat;lon;timestamp;temperature;humidity
29687;DHT22;16599;47.078;15.536;2022-12-18T00:03:51;-4.70;99.90
29687;DHT22;16599;47.078;15.536;2022-12-18T00:06:18;-4.90;99.90
29687;DHT22;16599;47.078;15.536;2022-12-18T00:08:46;-5.00;99.90
29687;DHT22;16599;47.078;15.536;2022-12-18T00:11:18;-4.70;99.90
29687;DHT22;16599;47.078;15.536;2022-12-18T00:13:46;-5.20;99.90
29687;DHT22;16599;47.078;15.536;2022-12-18T00:16:15;-5.50;99.90
29687;DHT22;16599;47.078;15.536;2022-12-18T00:18:43;-5.10;99.90
29687;DHT22;16599;47.078;15.536;2022-12-18T00:21:11;-4.90;99.90
29687;DHT22;16599;47.078;15.536;2022-12-18T00:23:39;-4.90;99.90
29687;DHT22;16599;47.078;15.536;2022-12-18T00:26:12;-5.20;99.90
29687;DHT22;16599;47.078;15.536;2022-12-18T00:28:39;-4.90;99.90
29687;DHT22;16599;47.078;15.536;2022-12-18T00:31:13;-4.70;99.90
29687;DHT22;16599;47.078;15.536;2022-12-18T00:33:40;-5.00;99.90
29687;DHT22;16599;47.078;15.536;2022-12-18T00:36:11;-5.00;99.90
29687;DHT22;16599;47.078;15.536;2022-12-18T00:38:39;-5.20;99.90
29687;DHT22;16599;47.078;15.536;2022-12-18T00:41:08;-5.10;99.90
29687;DHT22;16599;47.078;15.536;2022-12-18T00:43:36;-5.30;99.90
29687;DHT22;16599;47.078;15.536;2022-12-18T00:46:03;-5.50;99.90
29687;DHT22;16599;47.078;15.536;2022-12-18T00:48:30;-5.30;99.90
29687;DHT22;16599;47.078;15.536;2022-12-18T00:50:57;-5.20;99.90
29687;DHT22;16599;47.078;15.536;2022-12-18T00:53:24;-5.30;99.90
29687;DHT22;16599;47.078;15.536;2022-12-18T00:55:51;-5.40;99.90
29687;DHT22;16599;47.078;15.536;2022-12-18T00:58:18;-5.20;99.90
29687;DHT22;16599;47.078;15.536;2022-12-18T01:00:45;-5.10;99.90
29687;DHT22;16599;47.078;15.536;2022-12-18T01:03:15;-4.90;99.90
29687;DHT22;16599;47.078;15.536;2022-12-18T01:05:42;-5.30;99.90
29687;DHT22;16599;47.078;15.536;2022-12-18T01:08:09;-5.40;99.90
29687;DHT22;16599;47.078;15.536;2022-12-18T01:10:36;-5.10;99.90
29687;DHT22;16599;47.078;15.536;2022-12-18T01:13:03;-5.30;99.90
29687;DHT22;16599;47.078;15.536;2022-12-18T01:15:29;-5.60;99.90
29687;DHT22;16599;47.078;15.536;2022-12-18T01:17:56;-5.50;99.90
29687;DHT22;16599;47.078;15.536;2022-12-18T01:20:23;-5.60;99.90
29687;DHT22;16599;47.078;15.536;2022-12-18T01:22:50;-5.50;99.90
29687;DHT22;16599;47.078;15.536;2022-12-18T01:25:17;-5.50;99.90
29687;DHT22;16599;47.078;15.536;2022-12-18T01:27:44;-5.70;99.90
29687;DHT22;16599;47.078;15.536;2022-12-18T01:30:11;-5.50;99.90
29687;DHT22;16599;47.078;15.536;2022-12-18T01:32:38;-5.30;99.90
29687;DHT22;16599;47.078;15.536;2022-12-18T01:35:05;-5.30;99.90
29687;DHT22;16599;47.078;15.536;2022-12-18T01:37:32;-5.40;99.90
29687;DHT22;16599;47.078;15.536;2022-12-18T01:39:59;-5.50;99.90
29687;DHT22;16599;47.078;15.536;2022-12-18T01:42:25;-5.50;99.90
29687;DHT22;16599;47.078;15.536;2022-12-18T01:49:56;-5.50;99.90
29687;DHT22;16599;47.078;15.536;2022-12-18T01:52:26;-5.60;99.90
29687;DHT22;16599;47.078;15.536;2022-12-18T01:54:55;-5.60;99.90
29687;DHT22;16599;47.078;15.536;2022-12-18T01:57:23;-5.60;99.90
29687;DHT22;16599;47.078;15.536;2022-12-18T01:59:52;-5.50;99.90
29687;DHT22;16599;47.078;15.536;2022-12-18T02:02:20;-5.40;99.90
29687;DHT22;16599;47.078;15.536;2022-12-18T02:04:48;-5.60;99.90
29687;DHT22;16599;47.078;15.536;2022-12-18T02:10:06;-5.70;99.90
29687;DHT22;16599;47.078;15.536;2022-12-18T02:12:45;-6.10;99.90
29687;DHT22;16599;47.078;15.536;2022-12-18T02:17:48;-5.80;99.90
29687;DHT22;16599;47.078;15.536;2022-12-18T02:20:29;-5.60;99.90
29687;DHT22;16599;47.078;15.536;2022-12-18T02:23:32;-5.80;99.90
29687;DHT22;16599;47.078;15.536;2022-12-18T02:31:24;-5.90;99.90
29687;DHT22;16599;47.078;15.536;2022-12-18T02:33:54;-5.90;99.90
29687;DHT22;16599;47.078;15.536;2022-12-18T02:36:22;-6.00;99.90
29687;DHT22;16599;47.078;15.536;2022-12-18T02:38:51;-6.00;99.90
29687;DHT22;16599;47.078;15.536;2022-12-18T02:41:18;-6.10;99.90
29687;DHT22;16599;47.078;15.536;2022-12-18T02:43:52;-6.00;99.90
29687;DHT22;16599;47.078;15.536;2022-12-18T02:46:33;-5.70;99.90
29687;DHT22;16599;47.078;15.536;2022-12-18T02:49:24;-5.80;99.90
29687;DHT22;16599;47.078;15.536;2022-12-18T02:55:11;-5.90;99.90
29687;DHT22;16599;47.078;15.536;2022-12-18T02:57:49;-6.10;99.90
29687;DHT22;16599;47.078;15.536;2022-12-18T03:00:39;-6.00;99.90
29687;DHT22;16599;47.078;15.536;2022-12-18T03:03:24;-6.00;99.90
29687;DHT22;16599;47.078;15.536;2022-12-18T03:05:58;-5.90;99.90
29687;DHT22;16599;47.078;15.536;2022-12-18T03:08:35;-5.70;99.90
29687;DHT22;16599;47.078;15.536;2022-12-18T03:11:11;-5.60;99.90
29687;DHT22;16599;47.078;15.536;2022-12-18T03:13:48;-6.00;99.90
29687;DHT22;16599;47.078;15.536;2022-12-18T03:16:24;-6.10;99.90
29687;DHT22;16599;47.078;15.536;2022-12-18T03:18:59;-6.00;99.90
29687;DHT22;16599;47.078;15.536;2022-12-18T03:21:46;-6.00;99.90
29687;DHT22;16599;47.078;15.536;2022-12-18T03:24:14;-6.00;99.90
29687;DHT22;16599;47.078;15.536;2022-12-18T03:26:44;-6.00;99.90
29687;DHT22;16599;47.078;15.536;2022-12-18T03:29:38;-5.90;99.90
29687;DHT22;16599;47.078;15.536;2022-12-18T03:32:15;-6.00;99.90
29687;DHT22;16599;47.078;15.536;2022-12-18T03:34:43;-6.30;99.90
29687;DHT22;16599;47.078;15.536;2022-12-18T03:37:14;-6.40;99.90
29687;DHT22;16599;47.078;15.536;2022-12-18T03:39:41;-6.10;99.90
29687;DHT22;16599;47.078;15.536;2022-12-18T03:42:19;-6.00;99.90
29687;DHT22;16599;47.078;15.536;2022-12-18T03:45:13;-6.00;99.90
29687;DHT22;16599;47.078;15.536;2022-12-18T03:48:00;-6.00;99.90
29687;DHT22;16599;47.078;15.536;2022-12-18T03:50:56;-5.90;99.90
29687;DHT22;16599;47.078;15.536;2022-12-18T03:56:00;-5.90;99.90
29687;DHT22;16599;47.078;15.536;2022-12-18T03:58:28;-5.90;99.90
29687;DHT22;16599;47.078;15.536;2022-12-18T04:01:00;-5.90;99.90
29687;DHT22;16599;47.078;15.536;2022-12-18T04:03:28;-6.00;99.90
29687;DHT22;16599;47.078;15.536;2022-12-18T04:05:57;-6.00;99.90
29687;DHT22;16599;47.078;15.536;2022-12-18T04:08:25;-6.10;99.90
29687;DHT22;16599;47.078;15.536;2022-12-18T04:10:53;-6.30;99.90
29687;DHT22;16599;47.078;15.536;2022-12-18T04:13:24;-6.40;99.90
29687;DHT22;16599;47.078;15.536;2022-12-18T04:15:54;-6.40;99.90
29687;DHT22;16599;47.078;15.536;2022-12-18T04:18:20;-6.30;99.90
29687;DHT22;16599;47.078;15.536;2022-12-18T04:20:47;-6.40;99.90
29687;DHT22;16599;47.078;15.536;2022-12-18T04:23:14;-6.40;99.90
29687;DHT22;16599;47.078;15.536;2022-12-18T04:25:41;-6.60;99.90
29687;DHT22;16599;47.078;15.536;2022-12-18T04:28:08;-6.80;99.90
29687;DHT22;16599;47.078;15.536;2022-12-18T04:30:35;-6.70;99.90
29687;DHT22;16599;47.078;15.536;2022-12-18T04:33:02;-6.60;99.90
29687;DHT22;16599;47.078;15.536;2022-12-18T04:35:29;-6.70;99.90
29687;DHT22;16599;47.078;15.536;2022-12-18T04:37:56;-6.50;99.90
29687;DHT22;16599;47.078;15.536;2022-12-18T04:40:23;-6.40;99.90
29687;DHT22;16599;47.078;15.536;2022-12-18T04:42:50;-6.40;99.90
29687;DHT22;16599;47.078;15.536;2022-12-18T04:45:17;-6.60;99.90
29687;DHT22;16599;47.078;15.536;2022-12-18T04:47:44;-6.60;99.90
29687;DHT22;16599;47.078;15.536;2022-12-18T04:50:11;-6.40;99.90
29687;DHT22;16599;47.078;15.536;2022-12-18T04:52:37;-6.50;99.90
29687;DHT22;16599;47.078;15.536;2022-12-18T04:55:05;-6.70;99.90
29687;DHT22;16599;47.078;15.536;2022-12-18T04:57:32;-6.60;99.90
29687;DHT22;16599;47.078;15.536;2022-12-18T04:59:59;-6.70;99.90
29687;DHT22;16599;47.078;15.536;2022-12-18T05:02:25;-6.60;99.90
29687;DHT22;16599;47.078;15.536;2022-12-18T05:04:52;-6.70;99.90
29687;DHT22;16599;47.078;15.536;2022-12-18T05:07:19;-6.60;99.90
29687;DHT22;16599;47.078;15.536;2022-12-18T05:09:46;-6.60;99.90
29687;DHT22;16599;47.078;15.536;2022-12-18T05:12:13;-6.50;99.90
29687;DHT22;16599;47.078;15.536;2022-12-18T05:14:39;-6.80;99.90
29687;DHT22;16599;47.078;15.536;2022-12-18T05:17:06;-6.70;99.90
29687;DHT22;16599;47.078;15.536;2022-12-18T05:19:33;-6.70;99.90
29687;DHT22;16599;47.078;15.536;2022-12-18T05:22:00;-6.80;99.90
29687;DHT22;16599;47.078;15.536;2022-12-18T05:24:28;-6.80;99.90
29687;DHT22;16599;47.078;15.536;2022-12-18T05:26:54;-6.70;99.90
29687;DHT22;16599;47.078;15.536;2022-12-18T05:29:21;-6.70;99.90
29687;DHT22;16599;47.078;15.536;2022-12-18T05:31:48;-6.70;99.90
29687;DHT22;16599;47.078;15.536;2022-12-18T05:34:15;-6.70;99.90
29687;DHT22;16599;47.078;15.536;2022-12-18T05:36:42;-6.60;99.90
29687;DHT22;16599;47.078;15.536;2022-12-18T05:39:10;-6.70;99.90
29687;DHT22;16599;47.078;15.536;2022-12-18T05:41:37;-6.70;99.90
29687;DHT22;16599;47.078;15.536;2022-12-18T05:44:03;-7.00;99.90
29687;DHT22;16599;47.078;15.536;2022-12-18T05:46:31;-7.10;99.90
29687;DHT22;16599;47.078;15.536;2022-12-18T05:49:01;-6.90;99.90
29687;DHT22;16599;47.078;15.536;2022-12-18T05:51:27;-6.80;99.90
29687;DHT22;16599;47.078;15.536;2022-12-18T05:53:55;-6.80;99.90
29687;DHT22;16599;47.078;15.536;2022-12-18T05:56:22;-6.80;99.90
29687;DHT22;16599;47.078;15.536;2022-12-18T05:58:53;-6.80;99.90
29687;DHT22;16599;47.078;15.536;2022-12-18T06:01:23;-7.10;99.90
29687;DHT22;16599;47.078;15.536;2022-12-18T06:03:50;-6.90;99.90
29687;DHT22;16599;47.078;15.536;2022-12-18T06:06:23;-6.70;99.90
29687;DHT22;16599;47.078;15.536;2022-12-18T06:08:52;-6.60;99.90
29687;DHT22;16599;47.078;15.536;2022-12-18T06:11:22;-6.70;99.90
29687;DHT22;16599;47.078;15.536;2022-12-18T06:13:51;-6.80;99.90
29687;DHT22;16599;47.078;15.536;2022-12-18T06:16:23;-6.70;99.90
29687;DHT22;16599;47.078;15.536;2022-12-18T06:18:50;-6.70;99.90
29687;DHT22;16599;47.078;15.536;2022-12-18T06:21:17;-6.70;99.90
29687;DHT22;16599;47.078;15.536;2022-12-18T06:23:44;-6.90;99.90
29687;DHT22;16599;47.078;15.536;2022-12-18T06:26:12;-7.10;99.90
29687;DHT22;16599;47.078;15.536;2022-12-18T06:28:39;-7.00;99.90
29687;DHT22;16599;47.078;15.536;2022-12-18T06:31:08;-6.90;99.90
29687;DHT22;16599;47.078;15.536;2022-12-18T06:33:35;-7.10;99.90
29687;DHT22;16599;47.078;15.536;2022-12-18T06:38:32;-6.70;99.90
29687;DHT22;16599;47.078;15.536;2022-12-18T06:40:59;-6.60;99.90
29687;DHT22;16599;47.078;15.536;2022-12-18T06:43:26;-6.60;99.90
29687;DHT22;16599;47.078;15.536;2022-12-18T06:46:01;-6.60;99.90
29687;DHT22;16599;47.078;15.536;2022-12-18T06:48:29;-6.40;99.90
29687;DHT22;16599;47.078;15.536;2022-12-18T06:50:56;-6.40;99.90
29687;DHT22;16599;47.078;15.536;2022-12-18T06:53:24;-6.30;99.90
29687;DHT22;16599;47.078;15.536;2022-12-18T06:55:51;-6.20;99.90
29687;DHT22;16599;47.078;15.536;2022-12-18T06:58:18;-6.10;99.90
29687;DHT22;16599;47.078;15.536;2022-12-18T07:00:45;-6.00;99.90
29687;DHT22;16599;47.078;15.536;2022-12-18T07:03:12;-5.90;99.90
29687;DHT22;16599;47.078;15.536;2022-12-18T07:05:41;-5.90;99.90
29687;DHT22;16599;47.078;15.536;2022-12-18T07:08:08;-5.80;99.90
29687;DHT22;16599;47.078;15.536;2022-12-18T07:10:43;-5.70;99.90
29687;DHT22;16599;47.078;15.536;2022-12-18T07:13:17;-5.50;99.90
29687;DHT22;16599;47.078;15.536;2022-12-18T07:15:44;-5.50;99.90
29687;DHT22;16599;47.078;15.536;2022-12-18T07:18:11;-5.50;99.90
29687;DHT22;16599;47.078;15.536;2022-12-18T07:20:39;-5.50;99.90
29687;DHT22;16599;47.078;15.536;2022-12-18T07:23:05;-5.40;99.90
29687;DHT22;16599;47.078;15.536;2022-12-18T07:25:36;-5.30;99.90
29687;DHT22;16599;47.078;15.536;2022-12-18T07:28:04;-5.20;99.90
29687;DHT22;16599;47.078;15.536;2022-12-18T07:30:30;-5.20;99.90
29687;DHT22;16599;47.078;15.536;2022-12-18T07:32:57;-5.10;99.90
29687;DHT22;16599;47.078;15.536;2022-12-18T07:35:24;-5.10;99.90
29687;DHT22;16599;47.078;15.536;2022-12-18T07:37:51;-5.00;99.90
29687;DHT22;16599;47.078;15.536;2022-12-18T07:40:18;-4.90;99.90
29687;DHT22;16599;47.078;15.536;2022-12-18T07:42:45;-4.90;99.90
29687;DHT22;16599;47.078;15.536;2022-12-18T07:45:12;-4.70;99.90
29687;DHT22;16599;47.078;15.536;2022-12-18T07:47:38;-4.70;99.90
29687;DHT22;16599;47.078;15.536;2022-12-18T07:50:08;-4.70;99.90
29687;DHT22;16599;47.078;15.536;2022-12-18T07:52:35;-4.70;99.90
29687;DHT22;16599;47.078;15.536;2022-12-18T07:55:02;-4.70;99.90
29687;DHT22;16599;47.078;15.536;2022-12-18T07:57:29;-4.50;99.90
29687;DHT22;16599;47.078;15.536;2022-12-18T08:00:16;-4.50;99.90
29687;DHT22;16599;47.078;15.536;2022-12-18T08:02:43;-4.40;99.90
29687;DHT22;16599;47.078;15.536;2022-12-18T08:05:10;-4.30;99.90
29687;DHT22;16599;47.078;15.536;2022-12-18T08:07:37;-4.20;99.90
29687;DHT22;16599;47.078;15.536;2022-12-18T08:10:04;-4.10;99.90
29687;DHT22;16599;47.078;15.536;2022-12-18T08:12:31;-4.00;99.90
29687;DHT22;16599;47.078;15.536;2022-12-18T08:14:58;-3.90;99.90
29687;DHT22;16599;47.078;15.536;2022-12-18T08:17:25;-3.80;99.90
29687;DHT22;16599;47.078;15.536;2022-12-18T08:19:52;-3.80;99.90
29687;DHT22;16599;47.078;15.536;2022-12-18T08:22:19;-3.70;99.90
29687;DHT22;16599;47.078;15.536;2022-12-18T08:24:45;-3.70;99.90
29687;DHT22;16599;47.078;15.536;2022-12-18T08:27:12;-3.60;99.90
29687;DHT22;16599;47.078;15.536;2022-12-18T08:29:55;-3.70;99.90
29687;DHT22;16599;47.078;15.536;2022-12-18T08:32:22;-3.50;99.90
29687;DHT22;16599;47.078;15.536;2022-12-18T08:34:49;-3.40;99.90
29687;DHT22;16599;47.078;15.536;2022-12-18T08:37:16;-3.20;99.90
29687;DHT22;16599;47.078;15.536;2022-12-18T08:39:43;-3.20;99.90
29687;DHT22;16599;47.078;15.536;2022-12-18T08:42:10;-3.20;99.90
29687;DHT22;16599;47.078;15.536;2022-12-18T08:45:12;-3.20;99.90
29687;DHT22;16599;47.078;15.536;2022-12-18T08:47:38;-3.10;99.90
29687;DHT22;16599;47.078;15.536;2022-12-18T08:50:06;-3.10;99.90
29687;DHT22;16599;47.078;15.536;2022-12-18T08:52:32;-3.10;99.90
29687;DHT22;16599;47.078;15.536;2022-12-18T08:54:59;-2.90;99.90
29687;DHT22;16599;47.078;15.536;2022-12-18T08:57:31;-2.70;99.90
29687;DHT22;16599;47.078;15.536;2022-12-18T08:59:58;-2.60;99.90
29687;DHT22;16599;47.078;15.536;2022-12-18T09:02:25;-2.70;99.90
29687;DHT22;16599;47.078;15.536;2022-12-18T09:04:52;-2.70;99.90
29687;DHT22;16599;47.078;15.536;2022-12-18T09:07:23;-2.60;99.90
29687;DHT22;16599;47.078;15.536;2022-12-18T09:09:50;-2.70;99.90
29687;DHT22;16599;47.078;15.536;2022-12-18T09:12:16;-2.70;99.90
29687;DHT22;16599;47.078;15.536;2022-12-18T09:14:43;-2.40;99.90
29687;DHT22;16599;47.078;15.536;2022-12-18T09:17:12;-2.40;99.90
29687;DHT22;16599;47.078;15.536;2022-12-18T09:19:39;-2.50;99.90
29687;DHT22;16599;47.078;15.536;2022-12-18T09:22:10;-2.50;99.90
29687;DHT22;16599;47.078;15.536;2022-12-18T09:24:37;-2.50;99.90
29687;DHT22;16599;47.078;15.536;2022-12-18T09:27:04;-2.50;99.90
29687;DHT22;16599;47.078;15.536;2022-12-18T09:29:32;-2.50;99.90
29687;DHT22;16599;47.078;15.536;2022-12-18T09:31:59;-2.60;99.90
29687;DHT22;16599;47.078;15.536;2022-12-18T09:34:26;-2.70;99.90
29687;DHT22;16599;47.078;15.536;2022-12-18T09:37:00;-2.60;99.90
29687;DHT22;16599;47.078;15.536;2022-12-18T09:39:27;-2.50;99.90
29687;DHT22;16599;47.078;15.536;2022-12-18T09:42:21;-2.60;99.90
29687;DHT22;16599;47.078;15.536;2022-12-18T09:44:53;-2.50;99.90
29687;DHT22;16599;47.078;15.536;2022-12-18T09:49:53;-2.80;99.90
29687;DHT22;16599;47.078;15.536;2022-12-18T09:52:32;-2.80;99.90
29687;DHT22;16599;47.078;15.536;2022-12-18T09:57:49;-2.60;99.90
29687;DHT22;16599;47.078;15.536;2022-12-18T10:00:22;-2.60;99.90
29687;DHT22;16599;47.078;15.536;2022-12-18T10:02:51;-2.70;99.90
29687;DHT22;16599;47.078;15.536;2022-12-18T10:05:43;-2.70;99.90
29687;DHT22;16599;47.078;15.536;2022-12-18T10:08:44;-2.60;99.90
29687;DHT22;16599;47.078;15.536;2022-12-18T10:27:30;-2.30;99.90
29687;DHT22;16599;47.078;15.536;2022-12-18T10:29:59;-2.40;99.90
29687;DHT22;16599;47.078;15.536;2022-12-18T10:32:30;-2.30;99.90
29687;DHT22;16599;47.078;15.536;2022-12-18T10:35:11;-2.30;99.90
29687;DHT22;16599;47.078;15.536;2022-12-18T10:38:21;-2.20;99.90
29687;DHT22;16599;47.078;15.536;2022-12-18T10:41:04;-2.20;99.90
29687;DHT22;16599;47.078;15.536;2022-12-18T10:43:35;-2.20;99.90
29687;DHT22;16599;47.078;15.536;2022-12-18T10:46:14;-2.50;99.90
29687;DHT22;16599;47.078;15.536;2022-12-18T10:48:50;-2.60;99.90
29687;DHT22;16599;47.078;15.536;2022-12-18T10:51:30;-2.60;99.90
29687;DHT22;16599;47.078;15.536;2022-12-18T10:54:06;-2.40;99.90
29687;DHT22;16599;47.078;15.536;2022-12-18T10:56:39;-2.40;99.90
29687;DHT22;16599;47.078;15.536;2022-12-18T10:59:08;-2.40;99.90
29687;DHT22;16599;47.078;15.536;2022-12-18T11:01:56;-2.50;99.90
29687;DHT22;16599;47.078;15.536;2022-12-18T11:04:29;-2.60;99.90
29687;DHT22;16599;47.078;15.536;2022-12-18T11:07:05;-2.70;99.90
29687;DHT22;16599;47.078;15.536;2022-12-18T11:09:39;-2.70;99.90
29687;DHT22;16599;47.078;15.536;2022-12-18T11:12:19;-2.70;99.90
29687;DHT22;16599;47.078;15.536;2022-12-18T11:14:51;-2.80;99.90
29687;DHT22;16599;47.078;15.536;2022-12-18T11:17:34;-2.80;99.90
29687;DHT22;16599;47.078;15.536;2022-12-18T11:20:05;-2.70;99.90
29687;DHT22;16599;47.078;15.536;2022-12-18T11:22:36;-2.70;99.90
29687;DHT22;16599;47.078;15.536;2022-12-18T11:30:46;-2.70;99.90
29687;DHT22;16599;47.078;15.536;2022-12-18T11:33:19;-2.70;99.90
29687;DHT22;16599;47.078;15.536;2022-12-18T11:35:56;-2.60;99.90
29687;DHT22;16599;47.078;15.536;2022-12-18T11:38:41;-2.60;99.90
29687;DHT22;16599;47.078;15.536;2022-12-18T11:41:19;-2.60;99.90
29687;DHT22;16599;47.078;15.536;2022-12-18T11:43:52;-2.50;99.90
29687;DHT22;16599;47.078;15.536;2022-12-18T11:46:32;-2.50;99.90
29687;DHT22;16599;47.078;15.536;2022-12-18T11:49:12;-2.50;99.90
29687;DHT22;16599;47.078;15.536;2022-12-18T11:54:15;-2.30;99.90
29687;DHT22;16599;47.078;15.536;2022-12-18T11:57:23;-2.20;99.90
29687;DHT22;16599;47.078;15.536;2022-12-18T12:00:19;-2.30;99.90
29687;DHT22;16599;47.078;15.536;2022-12-18T12:05:49;-2.30;99.90
29687;DHT22;16599;47.078;15.536;2022-12-18T12:16:50;-2.60;99.90
29687;DHT22;16599;47.078;15.536;2022-12-18T12:25:33;-2.40;99.90
29687;DHT22;16599;47.078;15.536;2022-12-18T12:28:59;-2.30;99.90
29687;DHT22;16599;47.078;15.536;2022-12-18T12:39:13;-2.90;99.90
29687;DHT22;16599;47.078;15.536;2022-12-18T12:41:42;-3.10;99.90
29687;DHT22;16599;47.078;15.536;2022-12-18T12:44:33;-3.00;99.90
29687;DHT22;16599;47.078;15.536;2022-12-18T12:47:10;-3.00;99.90
29687;DHT22;16599;47.078;15.536;2022-12-18T12:49:43;-3.00;99.90
29687;DHT22;16599;47.078;15.536;2022-12-18T12:52:31;-3.00;99.90
29687;DHT22;16599;47.078;15.536;2022-12-18T12:55:02;-2.80;99.90
29687;DHT22;16599;47.078;15.536;2022-12-18T12:57:38;-2.80;99.90
29687;DHT22;16599;47.078;15.536;2022-12-18T13:00:12;-2.70;99.90
29687;DHT22;16599;47.078;15.536;2022-12-18T13:02:48;-2.80;99.90
29687;DHT22;16599;47.078;15.536;2022-12-18T13:05:26;-2.80;99.90
29687;DHT22;16599;47.078;15.536;2022-12-18T13:08:03;-2.70;99.90
29687;DHT22;16599;47.078;15.536;2022-12-18T13:10:42;-2.70;99.90
29687;DHT22;16599;47.078;15.536;2022-12-18T13:13:14;-2.70;99.90
29687;DHT22;16599;47.078;15.536;2022-12-18T13:16:06;-2.60;99.90
29687;DHT22;16599;47.078;15.536;2022-12-18T13:18:34;-2.50;99.90
29687;DHT22;16599;47.078;15.536;2022-12-18T13:21:25;-2.60;99.90
29687;DHT22;16599;47.078;15.536;2022-12-18T13:23:53;-2.70;99.90
29687;DHT22;16599;47.078;15.536;2022-12-18T13:28:56;-2.70;99.90
29687;DHT22;16599;47.078;15.536;2022-12-18T13:36:54;-2.70;99.90
29687;DHT22;16599;47.078;15.536;2022-12-18T13:39:23;-2.60;99.90
29687;DHT22;16599;47.078;15.536;2022-12-18T13:44:38;-2.50;99.90
29687;DHT22;16599;47.078;15.536;2022-12-18T13:47:27;-2.40;99.90
29687;DHT22;16599;47.078;15.536;2022-12-18T13:49:55;-2.50;99.90
29687;DHT22;16599;47.078;15.536;2022-12-18T13:52:25;-2.50;99.90
29687;DHT22;16599;47.078;15.536;2022-12-18T13:54:56;-2.70;99.90
29687;DHT22;16599;47.078;15.536;2022-12-18T13:57:32;-2.60;99.90
29687;DHT22;16599;47.078;15.536;2022-12-18T14:02:45;-2.30;99.90
29687;DHT22;16599;47.078;15.536;2022-12-18T14:05:44;-2.30;99.90
29687;DHT22;16599;47.078;15.536;2022-12-18T14:08:14;-2.30;99.90
29687;DHT22;16599;47.078;15.536;2022-12-18T14:10:48;-2.30;99.90
29687;DHT22;16599;47.078;15.536;2022-12-18T14:13:39;-2.20;99.90
29687;DHT22;16599;47.078;15.536;2022-12-18T14:16:13;-2.20;99.90
29687;DHT22;16599;47.078;15.536;2022-12-18T14:18:45;-2.20;99.90
29687;DHT22;16599;47.078;15.536;2022-12-18T14:21:22;-2.20;99.90
29687;DHT22;16599;47.078;15.536;2022-12-18T14:24:03;-2.50;99.90
29687;DHT22;16599;47.078;15.536;2022-12-18T14:26:31;-2.50;99.90
29687;DHT22;16599;47.078;15.536;2022-12-18T14:32:14;-2.40;99.90
29687;DHT22;16599;47.078;15.536;2022-12-18T14:34:52;-2.40;99.90
29687;DHT22;16599;47.078;15.536;2022-12-18T14:37:25;-2.40;99.90
29687;DHT22;16599;47.078;15.536;2022-12-18T14:39:59;-2.30;99.90
29687;DHT22;16599;47.078;15.536;2022-12-18T14:42:36;-2.30;99.90
29687;DHT22;16599;47.078;15.536;2022-12-18T14:45:41;-2.40;99.90
29687;DHT22;16599;47.078;15.536;2022-12-18T14:51:00;-2.50;99.90
29687;DHT22;16599;47.078;15.536;2022-12-18T14:56:03;-2.40;99.90
29687;DHT22;16599;47.078;15.536;2022-12-18T14:58:36;-2.40;99.90
29687;DHT22;16599;47.078;15.536;2022-12-18T15:01:03;-2.50;99.90
29687;DHT22;16599;47.078;15.536;2022-12-18T15:03:30;-2.50;99.90
29687;DHT22;16599;47.078;15.536;2022-12-18T15:06:15;-2.50;99.90
29687;DHT22;16599;47.078;15.536;2022-12-18T15:08:42;-2.50;99.90
29687;DHT22;16599;47.078;15.536;2022-12-18T15:16:59;-2.40;99.90
29687;DHT22;16599;47.078;15.536;2022-12-18T15:19:44;-2.40;99.90
29687;DHT22;16599;47.078;15.536;2022-12-18T15:22:25;-2.50;99.90
29687;DHT22;16599;47.078;15.536;2022-12-18T15:24:53;-2.50;99.90
29687;DHT22;16599;47.078;15.536;2022-12-18T15:27:22;-2.50;99.90
29687;DHT22;16599;47.078;15.536;2022-12-18T15:30:17;-2.70;99.90
29687;DHT22;16599;47.078;15.536;2022-12-18T15:32:45;-2.70;99.90
29687;DHT22;16599;47.078;15.536;2022-12-18T15:35:22;-2.60;99.90
29687;DHT22;16599;47.078;15.536;2022-12-18T15:37:50;-2.40;99.90
29687;DHT22;16599;47.078;15.536;2022-12-18T15:40:21;-2.40;99.90
29687;DHT22;16599;47.078;15.536;2022-12-18T15:42:49;-2.40;99.90
29687;DHT22;16599;47.078;15.536;2022-12-18T15:45:36;-2.60;99.90
29687;DHT22;16599;47.078;15.536;2022-12-18T15:48:19;-2.60;99.90
29687;DHT22;16599;47.078;15.536;2022-12-18T15:50:50;-2.60;99.90
29687;DHT22;16599;47.078;15.536;2022-12-18T15:53:17;-2.60;99.90
29687;DHT22;16599;47.078;15.536;2022-12-18T15:55:45;-2.60;99.90
29687;DHT22;16599;47.078;15.536;2022-12-18T15:58:30;-2.50;99.90
29687;DHT22;16599;47.078;15.536;2022-12-18T16:00:58;-2.40;99.90
29687;DHT22;16599;47.078;15.536;2022-12-18T16:03:25;-2.50;99.90
29687;DHT22;16599;47.078;15.536;2022-12-18T16:05:52;-2.60;99.90
29687;DHT22;16599;47.078;15.536;2022-12-18T16:08:19;-2.60;99.90
29687;DHT22;16599;47.078;15.536;2022-12-18T16:10:46;-2.60;99.90
29687;DHT22;16599;47.078;15.536;2022-12-18T16:13:16;-2.50;99.90
29687;DHT22;16599;47.078;15.536;2022-12-18T16:15:45;-2.60;99.90
29687;DHT22;16599;47.078;15.536;2022-12-18T16:18:12;-2.50;99.90
29687;DHT22;16599;47.078;15.536;2022-12-18T16:20:39;-2.40;99.90
29687;DHT22;16599;47.078;15.536;2022-12-18T16:23:06;-2.40;99.90
29687;DHT22;16599;47.078;15.536;2022-12-18T16:25:33;-2.50;99.90
29687;DHT22;16599;47.078;15.536;2022-12-18T16:28:00;-2.50;99.90
29687;DHT22;16599;47.078;15.536;2022-12-18T16:30:28;-2.40;99.90
29687;DHT22;16599;47.078;15.536;2022-12-18T16:33:04;-2.30;99.90
29687;DHT22;16599;47.078;15.536;2022-12-18T16:35:33;-2.20;99.90
29687;DHT22;16599;47.078;15.536;2022-12-18T16:38:00;-2.20;99.90
29687;DHT22;16599;47.078;15.536;2022-12-18T16:40:27;-2.20;99.90
29687;DHT22;16599;47.078;15.536;2022-12-18T16:42:54;-2.20;99.90
29687;DHT22;16599;47.078;15.536;2022-12-18T16:45:21;-2.50;99.90
29687;DHT22;16599;47.078;15.536;2022-12-18T16:47:47;-2.50;99.90
29687;DHT22;16599;47.078;15.536;2022-12-18T16:50:14;-2.50;99.90
29687;DHT22;16599;47.078;15.536;2022-12-18T16:52:41;-2.40;99.90
29687;DHT22;16599;47.078;15.536;2022-12-18T16:55:09;-2.30;99.90
29687;DHT22;16599;47.078;15.536;2022-12-18T16:57:36;-2.20;99.90
29687;DHT22;16599;47.078;15.536;2022-12-18T17:00:04;-2.30;99.90
29687;DHT22;16599;47.078;15.536;2022-12-18T17:02:32;-2.20;99.90
29687;DHT22;16599;47.078;15.536;2022-12-18T17:05:00;-2.20;99.90
29687;DHT22;16599;47.078;15.536;2022-12-18T17:07:27;-2.20;99.90
29687;DHT22;16599;47.078;15.536;2022-12-18T17:09:56;-2.20;99.90
29687;DHT22;16599;47.078;15.536;2022-12-18T17:12:23;-2.30;99.90
29687;DHT22;16599;47.078;15.536;2022-12-18T17:14:52;-2.30;99.90
29687;DHT22;16599;47.078;15.536;2022-12-18T17:17:18;-2.20;99.90
29687;DHT22;16599;47.078;15.536;2022-12-18T17:19:49;-2.30;99.90
29687;DHT22;16599;47.078;15.536;2022-12-18T17:22:16;-2.20;99.90
29687;DHT22;16599;47.078;15.536;2022-12-18T17:24:44;-2.20;99.90
29687;DHT22;16599;47.078;15.536;2022-12-18T17:27:13;-2.10;99.90
29687;DHT22;16599;47.078;15.536;2022-12-18T17:29:42;-2.10;99.90
29687;DHT22;16599;47.078;15.536;2022-12-18T17:32:14;-2.10;99.90